Time;durP1;ratioP1;P1;durP2;ratioP2;P2;SDS_P1;SDS_P2;PMS_P1;PMS_P2;Temp;Humidity;BMP_temperature;BMP_pressure;BME280_temperature;BME280_humidity;BME280_pressure;Samples;Min_cycle;Max_cycle;Signal;HPM_P1;HPM_P2
2023/09/01 00:00:03;;;;;;;1.90;1.47;;;;;;;21.12;nan;99338.03;5006468;28;20255;-78
2023/09/01 00:02:31;;;;;;;2.20;1.40;;;;;;;21.12;nan;99338.84;5006920;28;20665;-78
2023/09/01 00:05:07;;;;;;;2.97;1.37;;;;;;;21.12;nan;99332.69;5006922;28;20606;-77
2023/09/01 00:07:32;;;;;;;1.43;1.30;;;;;;;21.12;nan;99338.03;5008736;28;20471;-78
2023/09/01 00:09:58;;;;;;;2.27;1.40;;;;;;;21.10;nan;99327.50;5004838;28;20461;-78
2023/09/01 00:12:24;;;;;;;3.20;1.60;;;;;;;21.11;nan;99328.34;5005574;28;20200;-78
2023/09/01 00:14:50;;;;;;;1.70;1.23;;;;;;;21.10;nan;99332.03;5004269;28;20503;-78
2023/09/01 00:17:15;;;;;;;2.00;1.33;;;;;;;21.11;nan;99336.34;5006417;28;20582;-78
2023/09/01 00:19:41;;;;;;;2.10;1.10;;;;;;;21.10;nan;99332.84;5006632;28;20214;-78
2023/09/01 00:22:06;;;;;;;1.20;1.10;;;;;;;21.12;nan;99327.34;5007029;28;20220;-78
2023/09/01 00:24:32;;;;;;;2.23;1.23;;;;;;;21.10;nan;99313.31;4989573;28;20205;-78
2023/09/01 00:26:58;;;;;;;8.90;2.10;;;;;;;21.09;nan;99322.31;4990010;28;20229;-78
2023/09/01 00:29:24;;;;;;;2.00;1.83;;;;;;;21.07;nan;99324.38;5003976;28;20704;-78
2023/09/01 00:31:49;;;;;;;2.50;1.53;;;;;;;21.08;nan;99326.00;5002238;28;20498;-78
2023/09/01 00:34:15;;;;;;;1.85;1.60;;;;;;;21.07;nan;99329.69;5005259;28;20442;-78
2023/09/01 00:36:40;;;;;;;3.72;1.58;;;;;;;21.07;nan;99340.38;5004789;28;20939;-78
2023/09/01 00:39:06;;;;;;;3.43;1.20;;;;;;;21.03;nan;99342.53;5006182;28;20237;-78
2023/09/01 00:41:31;;;;;;;1.83;1.53;;;;;;;21.03;nan;99344.38;5003287;28;20210;-78
2023/09/01 00:43:57;;;;;;;4.13;1.50;;;;;;;20.99;nan;99336.72;4970920;28;20274;-78
2023/09/01 00:46:23;;;;;;;1.80;1.13;;;;;;;20.98;nan;99345.75;5003548;28;20456;-77
2023/09/01 00:48:48;;;;;;;2.30;1.40;;;;;;;20.96;nan;99347.75;5000761;28;20206;-78
2023/09/01 00:51:14;;;;;;;1.90;1.50;;;;;;;20.95;nan;99346.09;5004611;28;20246;-78
2023/09/01 00:53:40;;;;;;;1.63;1.40;;;;;;;20.93;nan;99347.28;5003234;28;20518;-78
2023/09/01 00:56:07;;;;;;;2.67;1.83;;;;;;;20.89;nan;99344.09;4988872;28;20383;-78
2023/09/01 00:58:32;;;;;;;1.57;1.37;;;;;;;20.90;nan;99342.25;5004651;28;20477;-78
2023/09/01 01:00:58;;;;;;;2.03;1.50;;;;;;;20.84;nan;99341.09;5004642;28;20414;-77
2023/09/01 01:03:25;;;;;;;1.70;1.40;;;;;;;20.85;nan;99349.97;5002968;28;20504;-77
2023/09/01 01:06:22;;;;;;;2.40;1.23;;;;;;;20.85;nan;99342.78;5004641;28;20182;-77
2023/09/01 01:08:59;;;;;;;1.37;1.27;;;;;;;20.82;nan;99348.47;5000201;28;20426;-77
2023/09/01 01:11:25;;;;;;;1.83;1.43;;;;;;;20.77;nan;99343.63;5003814;28;20500;-77
2023/09/01 01:13:55;;;;;;;1.93;1.70;;;;;;;20.78;nan;99333.75;4985807;28;20426;-77
2023/09/01 01:16:23;;;;;;;1.93;1.43;;;;;;;20.78;nan;99345.28;4986229;28;20197;-78
2023/09/01 01:18:52;;;;;;;1.50;1.30;;;;;;;20.75;nan;99340.28;5004884;28;20513;-77
2023/09/01 01:21:24;;;;;;;3.57;1.40;;;;;;;20.73;nan;99334.25;5005256;28;20721;-77
2023/09/01 01:23:52;;;;;;;3.27;1.90;;;;;;;20.72;nan;99340.63;5005282;28;20807;-77
2023/09/01 01:26:18;;;;;;;2.00;1.00;;;;;;;20.69;nan;99354.31;5003715;28;20548;-77
2023/09/01 01:28:44;;;;;;;5.00;1.17;;;;;;;20.66;nan;99345.81;4989301;28;20545;-77
2023/09/01 01:31:10;;;;;;;2.20;1.37;;;;;;;20.61;nan;99353.50;5004511;28;20521;-77
2023/09/01 01:33:50;;;;;;;2.57;1.40;;;;;;;20.56;nan;99343.31;4985970;28;20451;-77
2023/09/01 01:36:25;;;;;;;2.08;1.38;;;;;;;20.55;nan;99355.81;4984422;28;20460;-77
2023/09/01 01:39:05;;;;;;;1.70;1.50;;;;;;;20.52;nan;99355.28;5002353;28;20854;-78
2023/09/01 01:41:48;;;;;;;2.27;1.17;;;;;;;20.48;nan;99353.97;5003534;28;20441;-77
2023/09/01 01:44:16;;;;;;;2.03;1.47;;;;;;;20.45;nan;99351.63;5002221;28;20461;-77
2023/09/01 01:46:43;;;;;;;3.07;1.50;;;;;;;20.41;nan;99351.09;4987780;28;20655;-77
2023/09/01 01:49:09;;;;;;;2.17;1.37;;;;;;;20.39;nan;99346.94;4987753;28;20474;-77
2023/09/01 01:51:35;;;;;;;1.90;1.20;;;;;;;20.36;nan;99348.13;4970312;28;20441;-77
2023/09/01 01:54:01;;;;;;;1.70;1.57;;;;;;;20.31;nan;99348.63;5001145;28;20545;-78
2023/09/01 01:56:26;;;;;;;2.30;1.20;;;;;;;20.28;nan;99348.97;4985491;28;20280;-77
2023/09/01 01:58:51;;;;;;;1.33;1.10;;;;;;;20.27;nan;99354.44;5001837;28;20204;-77
2023/09/01 02:01:17;;;;;;;1.40;1.23;;;;;;;20.26;nan;99355.47;4983946;28;20276;-77
2023/09/01 02:03:42;;;;;;;3.00;2.70;;;;;;;20.25;nan;99351.13;5000845;28;20203;-78
2023/09/01 02:06:08;;;;;;;4.57;1.60;;;;;;;20.24;nan;99347.63;4985217;28;20462;-78
2023/09/01 02:08:34;;;;;;;1.87;1.40;;;;;;;20.23;nan;99345.97;4996039;28;21193;-77
2023/09/01 02:10:59;;;;;;;2.10;1.40;;;;;;;20.22;nan;99351.44;4983764;28;20207;-78
2023/09/01 02:13:25;;;;;;;4.40;1.50;;;;;;;20.21;nan;99347.94;5001303;28;20516;-77
2023/09/01 02:15:52;;;;;;;1.80;1.20;;;;;;;20.19;nan;99357.94;5000607;28;20696;-78
2023/09/01 02:18:18;;;;;;;2.67;1.20;;;;;;;20.18;nan;99347.47;4994652;28;20212;-78
2023/09/01 02:20:43;;;;;;;1.70;1.37;;;;;;;20.18;nan;99350.13;4995854;28;20437;-78
2023/09/01 02:23:09;;;;;;;1.73;1.17;;;;;;;20.16;nan;99350.28;5000863;28;20479;-78
2023/09/01 02:25:37;;;;;;;3.73;1.63;;;;;;;20.15;nan;99353.13;4996673;28;20199;-78
2023/09/01 02:28:04;;;;;;;3.00;1.40;;;;;;;20.15;nan;99353.13;4997624;28;20674;-77
2023/09/01 02:30:30;;;;;;;1.40;1.17;;;;;;;20.15;nan;99342.47;4983525;28;20436;-77
2023/09/01 02:32:56;;;;;;;3.63;1.53;;;;;;;20.16;nan;99346.78;5000761;28;20454;-77
2023/09/01 02:35:22;;;;;;;1.90;1.40;;;;;;;20.13;nan;99342.63;4998161;28;20420;-78
2023/09/01 02:37:49;;;;;;;2.33;1.40;;;;;;;20.12;nan;99335.63;4997213;28;20250;-78
2023/09/01 02:40:15;;;;;;;3.63;1.20;;;;;;;20.11;nan;99337.44;4996740;28;20656;-78
2023/09/01 02:42:41;;;;;;;2.20;1.37;;;;;;;20.11;nan;99333.94;4984546;28;21002;-77
2023/09/01 02:45:12;;;;;;;3.50;1.50;;;;;;;20.10;nan;99335.78;4998757;28;20462;-77
2023/09/01 02:47:38;;;;;;;1.60;0.90;;;;;;;20.11;nan;99332.09;4994758;28;20425;-78
2023/09/01 02:50:04;;;;;;;1.73;1.43;;;;;;;20.10;nan;99333.13;4997323;28;20450;-78
2023/09/01 02:52:30;;;;;;;3.73;1.30;;;;;;;20.13;nan;99333.78;4984143;28;20427;-78
2023/09/01 02:54:56;;;;;;;2.27;1.20;;;;;;;20.11;nan;99326.78;4996908;28;20436;-77
2023/09/01 02:57:22;;;;;;;1.10;1.00;;;;;;;20.10;nan;99333.13;4987391;28;20852;-78
2023/09/01 02:59:48;;;;;;;1.93;1.20;;;;;;;20.09;nan;99334.13;4963937;28;20188;-78
2023/09/01 03:02:13;;;;;;;2.70;1.20;;;;;;;20.08;nan;99335.09;4981985;28;20478;-78
2023/09/01 03:04:39;;;;;;;3.30;1.10;;;;;;;20.05;nan;99332.78;4983634;28;20192;-77
2023/09/01 03:07:04;;;;;;;2.60;1.57;;;;;;;20.06;nan;99333.59;4984830;28;20450;-77
2023/09/01 03:09:30;;;;;;;1.77;1.13;;;;;;;20.06;nan;99329.13;4985057;28;20201;-78
2023/09/01 03:11:55;;;;;;;1.80;1.70;;;;;;;20.05;nan;99332.78;4986347;28;20642;-77
2023/09/01 03:14:22;;;;;;;1.30;1.20;;;;;;;20.06;nan;99329.13;4986212;28;20199;-77
2023/09/01 03:16:47;;;;;;;1.60;1.20;;;;;;;20.07;nan;99330.78;4986483;28;20450;-78
2023/09/01 03:19:13;;;;;;;1.70;1.10;;;;;;;20.07;nan;99332.63;4990966;28;20217;-78
2023/09/01 03:21:38;;;;;;;2.10;1.10;;;;;;;20.06;nan;99323.78;4987695;28;20238;-78
2023/09/01 03:24:04;;;;;;;1.37;1.27;;;;;;;20.06;nan;99330.94;5009243;28;20349;-77
2023/09/01 03:26:29;;;;;;;2.20;2.00;;;;;;;20.05;nan;99331.94;4988703;28;20198;-78
2023/09/01 03:28:55;;;;;;;1.20;1.10;;;;;;;20.04;nan;99325.78;4990923;28;20616;-78
2023/09/01 03:31:21;;;;;;;1.60;1.30;;;;;;;20.02;nan;99322.44;5007764;28;20254;-78
2023/09/01 03:33:47;;;;;;;2.17;1.40;;;;;;;20.02;nan;99325.09;4992378;28;20393;-78
2023/09/01 03:36:14;;;;;;;1.97;0.97;;;;;;;20.03;nan;99328.59;4991956;28;20978;-78
2023/09/01 03:38:39;;;;;;;4.27;1.40;;;;;;;20.01;nan;99325.25;4987980;28;20540;-78
2023/09/01 03:41:07;;;;;;;1.40;1.17;;;;;;;20.02;nan;99318.94;5005271;28;20821;-78
2023/09/01 03:43:35;;;;;;;1.17;1.07;;;;;;;20.01;nan;99326.13;5007325;28;20466;-78
2023/09/01 03:46:02;;;;;;;3.53;1.47;;;;;;;20.01;nan;99322.59;5003950;28;20192;-78
2023/09/01 03:48:27;;;;;;;3.13;2.00;;;;;;;19.98;nan;99317.59;5006064;28;20469;-78
2023/09/01 03:51:06;;;;;;;2.33;1.17;;;;;;;19.96;nan;99323.13;5005427;28;20640;-78
2023/09/01 03:53:31;;;;;;;1.77;1.20;;;;;;;19.94;nan;99324.28;5002970;28;20579;-78
2023/09/01 03:56:00;;;;;;;2.70;1.27;;;;;;;19.91;nan;99319.28;4989301;28;20450;-78
2023/09/01 03:58:26;;;;;;;1.50;1.20;;;;;;;19.88;nan;99321.25;4985415;28;20207;-78
2023/09/01 04:00:51;;;;;;;1.80;1.03;;;;;;;19.87;nan;99322.28;5004618;28;20571;-78
2023/09/01 04:03:17;;;;;;;1.80;1.50;;;;;;;19.88;nan;99318.59;5001108;28;20535;-78
2023/09/01 04:05:42;;;;;;;2.70;1.20;;;;;;;19.89;nan;99317.59;4987024;28;20724;-76
2023/09/01 04:08:07;;;;;;;2.37;1.30;;;;;;;19.92;nan;99324.41;5001784;28;20204;-77
2023/09/01 04:10:33;;;;;;;3.10;1.60;;;;;;;19.91;nan;99320.09;4984936;28;20391;-77
2023/09/01 04:12:58;;;;;;;2.70;2.00;;;;;;;19.91;nan;99324.59;5002342;28;20529;-77
2023/09/01 04:15:24;;;;;;;4.27;1.90;;;;;;;19.89;nan;99327.41;4998360;28;20567;-77
2023/09/01 04:17:49;;;;;;;3.20;1.60;;;;;;;19.91;nan;99320.09;4998802;28;20207;-77
2023/09/01 04:20:15;;;;;;;4.10;1.40;;;;;;;19.91;nan;99325.44;4997671;28;20208;-77
2023/09/01 04:22:40;;;;;;;3.30;1.60;;;;;;;19.90;nan;99323.75;4998431;28;20222;-77
2023/09/01 04:25:06;;;;;;;4.93;1.53;;;;;;;19.91;nan;99330.75;4967690;28;20296;-76
2023/09/01 04:30:27;;;;;;;1.70;1.30;;;;;;;19.89;nan;99322.91;4899692;29;20312;-80
2023/09/01 04:32:52;;;;;;;1.57;1.20;;;;;;;19.89;nan;99330.91;4891580;29;20428;-80
2023/09/01 04:35:18;;;;;;;3.43;1.67;;;;;;;19.91;nan;99332.59;4901570;29;20202;-79
2023/09/01 04:37:43;;;;;;;1.73;1.50;;;;;;;19.91;nan;99337.94;4901706;29;20662;-80
2023/09/01 04:40:09;;;;;;;1.63;1.50;;;;;;;19.89;nan;99330.91;4917043;29;20205;-79
2023/09/01 04:42:35;;;;;;;1.60;1.30;;;;;;;19.89;nan;99327.41;4917080;29;20214;-80
2023/09/01 04:45:00;;;;;;;2.43;1.47;;;;;;;19.90;nan;99329.06;4918006;29;20925;-79
2023/09/01 04:47:27;;;;;;;1.93;1.30;;;;;;;19.92;nan;99335.09;4919941;29;20199;-78
2023/09/01 04:49:53;;;;;;;1.73;1.60;;;;;;;19.94;nan;99343.75;4902932;29;20213;-78
2023/09/01 04:52:18;;;;;;;2.30;1.53;;;;;;;19.96;nan;99332.94;4897613;29;20461;-80
2023/09/01 04:54:44;;;;;;;3.30;1.90;;;;;;;19.97;nan;99335.44;4917948;29;20289;-80
2023/09/01 04:57:09;;;;;;;8.03;1.70;;;;;;;19.98;nan;99337.13;4899843;29;20301;-79
2023/09/01 04:59:35;;;;;;;2.10;1.90;;;;;;;19.98;nan;99342.44;4916413;29;20803;-79
2023/09/01 05:02:01;;;;;;;2.27;1.63;;;;;;;19.99;nan;99344.09;4902577;29;20203;-79
2023/09/01 05:04:26;;;;;;;4.10;1.53;;;;;;;19.97;nan;99340.75;4913979;29;20553;-81
2023/09/01 05:06:52;;;;;;;6.30;1.50;;;;;;;19.95;nan;99342.75;4900039;29;20336;-81
2023/09/01 05:09:18;;;;;;;2.00;1.47;;;;;;;19.90;nan;99337.06;4900136;29;20754;-79
2023/09/01 05:11:44;;;;;;;1.73;1.30;;;;;;;19.78;nan;99338.41;4900416;29;20461;-79
2023/09/01 05:14:18;;;;;;;2.90;1.57;;;;;;;19.66;nan;99346.69;4895720;29;21096;-81
2023/09/01 05:16:44;;;;;;;2.37;1.33;;;;;;;19.61;nan;99343.66;4898905;29;20316;-79
2023/09/01 05:19:09;;;;;;;1.20;1.10;;;;;;;19.58;nan;99349.31;4893989;29;20472;-79
2023/09/01 05:21:35;;;;;;;1.80;1.43;;;;;;;19.59;nan;99347.47;4893990;29;20202;-81
2023/09/01 05:24:01;;;;;;;6.80;1.83;;;;;;;19.59;nan;99347.47;4895352;29;20579;-79
2023/09/01 05:26:26;;;;;;;2.43;1.87;;;;;;;19.62;nan;99339.97;4892946;29;20281;-79
2023/09/01 05:28:51;;;;;;;2.37;1.50;;;;;;;19.66;nan;99338.72;4895979;29;20934;-81
2023/09/01 05:31:17;;;;;;;2.07;1.60;;;;;;;19.72;nan;99347.06;4896198;29;20204;-81
2023/09/01 05:33:45;;;;;;;4.23;2.03;;;;;;;19.77;nan;99340.25;4904397;29;20182;-80
2023/09/01 05:36:10;;;;;;;3.80;2.10;;;;;;;19.88;nan;99339.91;4893096;29;20445;-81
2023/09/01 05:38:36;;;;;;;3.43;1.90;;;;;;;19.98;nan;99339.78;4892586;29;20774;-80
2023/09/01 05:41:02;;;;;;;2.30;2.10;;;;;;;20.06;nan;99344.25;4892852;29;20469;-79
2023/09/01 05:43:29;;;;;;;2.83;1.40;;;;;;;20.14;nan;99346.94;4893716;29;20207;-81
2023/09/01 05:45:55;;;;;;;4.00;1.93;;;;;;;20.22;nan;99338.94;4893287;29;21155;-80
2023/09/01 05:48:21;;;;;;;4.30;1.60;;;;;;;20.28;nan;99350.78;4877756;29;20437;-79
2023/09/01 05:50:46;;;;;;;1.90;1.70;;;;;;;20.34;nan;99350.97;4893011;29;20581;-82
2023/09/01 05:53:14;;;;;;;2.77;1.87;;;;;;;20.41;nan;99352.94;4896059;29;20630;-79
2023/09/01 05:55:39;;;;;;;4.47;1.63;;;;;;;20.45;nan;99349.78;4911782;29;20465;-79
2023/09/01 05:58:05;;;;;;;1.90;1.60;;;;;;;20.52;nan;99355.28;4913697;29;20230;-81
2023/09/01 06:00:30;;;;;;;4.73;1.80;;;;;;;20.58;nan;99360.00;4910074;29;20194;-81
2023/09/01 06:02:59;;;;;;;2.10;1.50;;;;;;;20.64;nan;99359.31;4887091;29;20235;-81
2023/09/01 06:05:24;;;;;;;2.70;1.43;;;;;;;20.69;nan;99356.97;4909849;29;20481;-81
2023/09/01 06:07:50;;;;;;;3.90;1.20;;;;;;;20.73;nan;99344.94;4909515;29;20454;-81
2023/09/01 06:10:15;;;;;;;4.30;1.80;;;;;;;20.81;nan;99348.63;4915878;29;20200;-80
2023/09/01 06:12:42;;;;;;;1.57;1.20;;;;;;;20.86;nan;99344.44;4914215;29;20754;-81
2023/09/01 06:15:08;;;;;;;1.57;1.47;;;;;;;20.94;nan;99357.75;4914918;29;20617;-80
2023/09/01 06:17:33;;;;;;;1.80;1.27;;;;;;;21.06;nan;99357.38;4913991;29;20469;-81
2023/09/01 06:19:59;;;;;;;2.10;1.50;;;;;;;21.30;nan;99359.97;4907326;29;20545;-80
2023/09/01 06:22:25;;;;;;;1.43;1.30;;;;;;;21.65;nan;99358.69;4910077;29;20476;-81
2023/09/01 06:24:52;;;;;;;1.43;1.33;;;;;;;22.01;nan;99368.84;4913856;29;20313;-80
2023/09/01 06:27:18;;;;;;;1.70;1.40;;;;;;;22.22;nan;99370.91;4915259;29;20566;-80
2023/09/01 06:29:43;;;;;;;1.53;1.43;;;;;;;22.35;nan;99367.63;4898804;29;20471;-81
2023/09/01 06:32:11;;;;;;;2.20;1.20;;;;;;;22.41;nan;99358.03;4916624;29;20705;-79
2023/09/01 06:34:37;;;;;;;2.80;1.57;;;;;;;22.31;nan;99371.69;4918992;29;20211;-80
2023/09/01 06:37:03;;;;;;;1.93;1.40;;;;;;;22.15;nan;99366.44;4913772;29;20444;-81
2023/09/01 06:39:28;;;;;;;3.60;1.60;;;;;;;22.03;nan;99369.50;4916903;29;20514;-80
2023/09/01 06:41:54;;;;;;;2.30;2.17;;;;;;;21.96;nan;99367.72;4915137;29;20633;-81
2023/09/01 06:44:19;;;;;;;1.93;1.57;;;;;;;21.92;nan;99366.41;4915938;29;20624;-81
2023/09/01 06:46:45;;;;;;;4.07;1.63;;;;;;;21.92;nan;99377.09;4915613;29;20339;-80
2023/09/01 06:49:10;;;;;;;3.03;1.37;;;;;;;21.94;nan;99370.56;4917443;29;20437;-80
2023/09/01 06:51:35;;;;;;;3.40;1.53;;;;;;;22.01;nan;99378.72;4916330;29;20644;-80
2023/09/01 06:54:01;;;;;;;1.47;1.37;;;;;;;22.07;nan;99372.66;4919344;29;20572;-80
2023/09/01 06:56:26;;;;;;;1.63;1.33;;;;;;;22.09;nan;99376.00;4914306;29;20828;-80
2023/09/01 06:58:51;;;;;;;2.23;2.00;;;;;;;22.16;nan;99376.09;4914745;29;20204;-80
2023/09/01 07:01:17;;;;;;;3.03;1.60;;;;;;;22.21;nan;99384.47;4912345;29;20701;-80
2023/09/01 07:03:42;;;;;;;2.27;1.30;;;;;;;22.21;nan;99369.25;4913384;29;20221;-81
2023/09/01 07:06:08;;;;;;;2.10;1.50;;;;;;;22.21;nan;99385.28;4915465;29;20292;-82
2023/09/01 07:08:33;;;;;;;2.73;1.83;;;;;;;22.19;nan;99381.13;4914334;29;20216;-80
2023/09/01 07:11:01;;;;;;;3.33;1.70;;;;;;;22.20;nan;99377.47;4915002;29;20757;-81
2023/09/01 07:13:26;;;;;;;1.40;1.20;;;;;;;22.20;nan;99375.63;4913111;29;20258;-80
2023/09/01 07:15:51;;;;;;;2.40;1.53;;;;;;;22.26;nan;99376.75;4915128;29;20614;-80
2023/09/01 07:18:17;;;;;;;2.17;1.80;;;;;;;22.25;nan;99370.56;4913290;29;20210;-81
2023/09/01 07:20:45;;;;;;;3.50;2.20;;;;;;;22.24;nan;99371.56;4911915;29;20529;-80
2023/09/01 07:23:11;;;;;;;2.47;1.27;;;;;;;22.29;nan;99374.53;4914127;29;20224;-80
2023/09/01 07:25:36;;;;;;;2.27;1.50;;;;;;;22.44;nan;99382.63;4914242;29;20765;-82
2023/09/01 07:28:02;;;;;;;1.70;1.50;;;;;;;22.81;nan;99382.78;4911076;29;20212;-80
2023/09/01 07:30:31;;;;;;;1.80;1.30;;;;;;;23.14;nan;99381.50;4910322;29;20244;-80
2023/09/01 07:32:56;;;;;;;1.87;1.20;;;;;;;23.54;nan;99367.78;4909574;29;20727;-81
2023/09/01 07:35:22;;;;;;;2.33;1.53;;;;;;;23.95;nan;99367.25;4912219;29;20486;-80
2023/09/01 07:37:47;;;;;;;2.70;1.23;;;;;;;24.32;nan;99373.41;4911376;29;20755;-80
2023/09/01 07:40:13;;;;;;;3.70;1.50;;;;;;;24.76;nan;99372.34;4913362;29;20216;-81
2023/09/01 07:42:39;;;;;;;1.57;1.20;;;;;;;25.14;nan;99368.28;4909910;29;20237;-81
2023/09/01 07:45:04;;;;;;;2.53;1.70;;;;;;;25.49;nan;99371.00;4912668;29;21086;-80
2023/09/01 07:47:30;;;;;;;2.37;1.33;;;;;;;25.64;nan;99376.19;4913755;29;20202;-82
2023/09/01 07:49:58;;;;;;;2.10;1.30;;;;;;;25.50;nan;99369.13;4912887;29;20205;-80
2023/09/01 07:52:25;;;;;;;1.23;1.03;;;;;;;25.26;nan;99367.75;4910896;29;20464;-81
2023/09/01 07:54:51;;;;;;;1.40;1.03;;;;;;;25.00;nan;99379.97;4912669;29;20223;-82
2023/09/01 07:57:16;;;;;;;1.33;1.10;;;;;;;24.86;nan;99387.09;4914400;29;20843;-80
2023/09/01 07:59:41;;;;;;;3.33;1.30;;;;;;;24.76;nan;99381.22;4910864;29;20225;-82
2023/09/01 08:02:07;;;;;;;3.53;1.50;;;;;;;24.71;nan;99379.16;4911028;29;20489;-81
2023/09/01 08:04:32;;;;;;;2.63;1.40;;;;;;;24.64;nan;99383.63;4910716;29;20671;-82
2023/09/01 08:06:59;;;;;;;1.70;1.60;;;;;;;24.61;nan;99373.28;4907357;29;20464;-81
2023/09/01 08:09:25;;;;;;;2.60;1.30;;;;;;;24.59;nan;99387.94;4911325;29;20686;-80
2023/09/01 08:11:51;;;;;;;2.03;1.23;;;;;;;24.51;nan;99388.88;4911949;29;20467;-80
2023/09/01 08:14:16;;;;;;;3.43;1.27;;;;;;;24.46;nan;99396.69;4910201;29;20935;-80
2023/09/01 08:16:42;;;;;;;1.30;1.10;;;;;;;24.50;nan;99389.91;4912239;29;20208;-80
2023/09/01 08:19:08;;;;;;;1.90;1.07;;;;;;;24.70;nan;99390.91;4910273;29;20205;-80
2023/09/01 08:21:33;;;;;;;1.53;1.43;;;;;;;25.13;nan;99398.03;4912847;29;20206;-81
2023/09/01 08:23:59;;;;;;;1.60;1.13;;;;;;;25.74;nan;99389.28;4916935;29;20648;-80
2023/09/01 08:26:25;;;;;;;3.17;1.33;;;;;;;26.33;nan;99383.25;4917744;29;20206;-80
2023/09/01 08:28:50;;;;;;;1.80;1.10;;;;;;;26.77;nan;99383.72;4898034;29;20695;-82
2023/09/01 08:31:16;;;;;;;2.13;1.00;;;;;;;27.01;nan;99385.75;4915938;29;20244;-80
2023/09/01 08:33:41;;;;;;;2.47;1.23;;;;;;;27.20;nan;99391.34;4918741;29;20175;-80
2023/09/01 08:36:07;;;;;;;1.77;1.20;;;;;;;27.45;nan;99392.31;4917062;29;20209;-81
2023/09/01 08:38:32;;;;;;;1.17;0.90;;;;;;;27.69;nan;99393.47;4920057;29;20219;-80
2023/09/01 08:41:03;;;;;;;2.33;1.30;;;;;;;27.87;nan;99392.81;4920789;29;20287;-82
2023/09/01 08:43:38;;;;;;;2.30;1.10;;;;;;;27.83;nan;99405.06;4922189;29;20705;-81
2023/09/01 08:46:04;;;;;;;1.73;0.80;;;;;;;27.54;nan;99385.66;4920368;29;20996;-81
2023/09/01 08:48:33;;;;;;;1.87;0.93;;;;;;;26.99;nan;99393.22;4918763;29;20651;-81
2023/09/01 08:50:59;;;;;;;2.43;1.00;;;;;;;26.52;nan;99400.50;4918815;29;20639;-81
2023/09/01 08:53:25;;;;;;;1.53;1.30;;;;;;;26.16;nan;99398.13;4917273;29;20498;-81
2023/09/01 08:55:51;;;;;;;1.20;0.87;;;;;;;25.82;nan;99394.50;4916484;29;20218;-81
2023/09/01 08:58:19;;;;;;;1.67;1.13;;;;;;;25.62;nan;99402.47;4913147;29;20468;-80
2023/09/01 09:00:45;;;;;;;2.23;1.20;;;;;;;25.47;nan;99393.72;4917836;29;20451;-81
2023/09/01 09:03:12;;;;;;;3.83;0.97;;;;;;;25.35;nan;99405.00;4917025;29;21058;-80
2023/09/01 09:05:38;;;;;;;3.00;1.30;;;;;;;25.41;nan;99410.63;4917863;29;20514;-81
2023/09/01 09:08:06;;;;;;;1.87;1.00;;;;;;;25.49;nan;99413.16;4916673;29;20216;-81
2023/09/01 09:10:42;;;;;;;2.30;1.00;;;;;;;25.47;nan;99409.84;4915258;29;20468;-80
2023/09/01 09:13:27;;;;;;;1.60;1.00;;;;;;;25.47;nan;99412.56;4917436;29;20557;-81
2023/09/01 09:16:12;;;;;;;1.73;0.90;;;;;;;25.39;nan;99414.38;4920248;29;20465;-80
2023/09/01 09:18:42;;;;;;;1.87;1.20;;;;;;;25.27;nan;99421.31;4914826;29;20453;-80
2023/09/01 09:21:25;;;;;;;1.70;1.10;;;;;;;25.06;nan;99424.03;4912651;29;20473;-81
2023/09/01 09:23:52;;;;;;;4.23;1.10;;;;;;;24.89;nan;99423.50;4913501;29;20462;-79
2023/09/01 09:26:27;;;;;;;2.43;1.33;;;;;;;24.79;nan;99421.16;4913912;29;20435;-81
2023/09/01 09:28:53;;;;;;;4.17;1.10;;;;;;;24.69;nan;99418.78;4914507;29;20566;-81
2023/09/01 09:31:28;;;;;;;2.13;1.10;;;;;;;24.56;nan;99418.69;4911656;29;20527;-81
2023/09/01 09:33:54;;;;;;;1.60;1.20;;;;;;;24.44;nan;99423.75;4911862;29;20510;-79
2023/09/01 09:36:36;;;;;;;1.60;1.00;;;;;;;24.32;nan;99417.19;4913065;29;20448;-82
2023/09/01 09:39:02;;;;;;;1.30;1.17;;;;;;;24.32;nan;99427.09;4915100;29;20301;-80
2023/09/01 09:41:44;;;;;;;1.70;1.50;;;;;;;24.36;nan;99423.84;4914589;29;20432;-80
2023/09/01 09:44:09;;;;;;;2.00;1.27;;;;;;;24.47;nan;99420.66;4913128;29;20463;-80
2023/09/01 09:46:44;;;;;;;1.97;1.37;;;;;;;24.59;nan;99418.28;4913748;29;20461;-82
2023/09/01 09:49:14;;;;;;;2.37;1.20;;;;;;;24.71;nan;99416.75;4913904;29;20218;-82
2023/09/01 09:51:41;;;;;;;4.57;1.57;;;;;;;24.80;nan;99417.44;4913674;29;20462;-82
2023/09/01 09:54:10;;;;;;;1.37;1.20;;;;;;;24.99;nan;99420.47;4911334;29;20822;-80
2023/09/01 09:56:38;;;;;;;1.30;1.07;;;;;;;25.20;nan;99423.16;4909556;29;20969;-79
2023/09/01 09:59:04;;;;;;;2.40;1.43;;;;;;;25.45;nan;99420.81;4913022;29;20449;-81
2023/09/01 10:01:34;;;;;;;1.30;1.10;;;;;;;25.56;nan;99414.03;4912331;29;21143;-80
2023/09/01 10:04:04;;;;;;;3.90;1.10;;;;;;;25.50;nan;99412.97;4911415;29;20482;-80
2023/09/01 10:06:31;;;;;;;1.90;1.40;;;;;;;25.43;nan;99408.59;4912503;29;20482;-79
2023/09/01 10:08:59;;;;;;;2.40;1.10;;;;;;;25.38;nan;99412.72;4912010;29;20710;-81
2023/09/01 10:11:28;;;;;;;2.40;1.20;;;;;;;25.35;nan;99404.19;4913985;29;20433;-80
2023/09/01 10:13:55;;;;;;;1.00;0.90;;;;;;;25.34;nan;99411.44;4908702;29;20462;-80
2023/09/01 10:16:23;;;;;;;2.40;1.50;;;;;;;25.38;nan;99409.16;4915264;29;20485;-81
2023/09/01 10:18:49;;;;;;;2.43;1.10;;;;;;;25.46;nan;99413.56;4917589;29;20476;-80
2023/09/01 10:21:18;;;;;;;1.20;1.10;;;;;;;25.50;nan;99409.47;4918192;29;20476;-82
2023/09/01 10:23:44;;;;;;;3.10;1.10;;;;;;;25.56;nan;99409.47;4911213;29;20449;-80
2023/09/01 10:26:28;;;;;;;1.03;0.93;;;;;;;25.68;nan;99411.59;4913268;29;20484;-83
2023/09/01 10:29:04;;;;;;;1.63;1.20;;;;;;;25.99;nan;99405.75;4911126;29;20232;-81
2023/09/01 10:31:34;;;;;;;1.67;1.10;;;;;;;26.25;nan;99403.13;4912472;29;20457;-82
2023/09/01 10:34:04;;;;;;;3.37;1.37;;;;;;;26.40;nan;99399.41;4911156;29;20511;-82
2023/09/01 10:36:29;;;;;;;1.60;1.13;;;;;;;26.47;nan;99402.94;4911878;29;21069;-81
2023/09/01 10:39:03;;;;;;;1.33;1.20;;;;;;;26.35;nan;99401.88;4911352;29;20469;-81
2023/09/01 10:41:44;;;;;;;1.17;1.00;;;;;;;26.34;nan;99400.25;4913098;29;20415;-81
2023/09/01 10:44:10;;;;;;;1.43;0.87;;;;;;;26.36;nan;99408.94;4910730;29;20656;-80
2023/09/01 10:46:35;;;;;;;1.73;0.97;;;;;;;26.31;nan;99400.66;4913444;29;20851;-80
2023/09/01 10:49:04;;;;;;;1.47;1.10;;;;;;;26.29;nan;99405.41;4913636;29;20888;-82
2023/09/01 10:51:33;;;;;;;1.20;0.90;;;;;;;26.34;nan;99405.63;4901547;29;20473;-81
2023/09/01 10:54:00;;;;;;;2.23;0.97;;;;;;;26.40;nan;99410.19;4907147;29;20491;-79
2023/09/01 10:56:26;;;;;;;1.50;1.00;;;;;;;26.59;nan;99398.63;4908977;29;20460;-81
2023/09/01 10:58:54;;;;;;;2.13;1.30;;;;;;;26.84;nan;99408.78;4913207;29;20444;-82
2023/09/01 11:01:30;;;;;;;1.43;1.00;;;;;;;27.11;nan;99415.81;4908957;29;20612;-82
2023/09/01 11:04:16;;;;;;;2.23;1.30;;;;;;;27.26;nan;99404.00;4911659;29;20488;-82
2023/09/01 11:06:56;;;;;;;1.13;0.80;;;;;;;27.33;nan;99404.81;4914670;29;20499;-81
2023/09/01 11:09:47;;;;;;;1.27;1.17;;;;;;;27.32;nan;99409.34;4915825;29;20906;-82
2023/09/01 11:12:13;;;;;;;1.07;0.90;;;;;;;27.35;nan;99411.66;4906909;29;20477;-82
2023/09/01 11:14:54;;;;;;;1.37;1.23;;;;;;;27.43;nan;99402.47;4912949;29;20454;-80
2023/09/01 11:17:43;;;;;;;1.27;1.17;;;;;;;27.47;nan;99392.94;4912484;29;20469;-80
2023/09/01 11:20:10;;;;;;;1.77;1.10;;;;;;;27.48;nan;99383.78;4913713;29;20465;-81
2023/09/01 11:22:37;;;;;;;2.87;1.23;;;;;;;27.48;nan;99399.97;4912553;29;20484;-80
2023/09/01 11:25:03;;;;;;;2.17;1.57;;;;;;;27.55;nan;99394.56;4916192;29;20866;-82
2023/09/01 11:27:29;;;;;;;2.40;1.20;;;;;;;27.65;nan;99386.84;4900293;29;20560;-84
2023/09/01 11:29:54;;;;;;;2.10;1.10;;;;;;;27.74;nan;99390.13;4918487;29;20225;-80
2023/09/01 11:32:26;;;;;;;1.10;1.00;;;;;;;27.80;nan;99389.31;4917023;29;20203;-81
2023/09/01 11:34:52;;;;;;;2.00;1.17;;;;;;;27.81;nan;99385.56;4913763;29;20205;-82
2023/09/01 11:37:32;;;;;;;1.20;1.00;;;;;;;27.86;nan;99385.72;4914174;29;20461;-80
2023/09/01 11:39:57;;;;;;;2.03;1.43;;;;;;;27.90;nan;99383.44;4911885;29;20209;-80
2023/09/01 11:42:23;;;;;;;2.13;1.20;;;;;;;27.90;nan;99378.88;4913779;29;20472;-82
2023/09/01 11:44:48;;;;;;;1.80;1.10;;;;;;;27.95;nan;99370.09;4916533;29;20815;-82
2023/09/01 11:47:14;;;;;;;4.40;1.30;;;;;;;28.07;nan;99379.19;4918697;29;20643;-81
2023/09/01 11:49:42;;;;;;;3.20;1.30;;;;;;;28.16;nan;99375.16;4918975;29;20448;-82
2023/09/01 11:52:07;;;;;;;2.00;1.20;;;;;;;28.18;nan;99369.56;4918432;29;20328;-81
2023/09/01 11:54:40;;;;;;;1.70;1.07;;;;;;;28.24;nan;99363.28;4899758;29;20588;-80